createdAt,value
2018-08-06T00:00:02.325Z,4.12
2018-08-06T00:00:14.847Z,4.12
2018-08-06T00:00:27.393Z,4.12
2018-08-06T00:00:39.961Z,4.12
2018-08-06T00:00:52.523Z,4.12
2018-08-06T00:01:05.045Z,4.12
2018-08-06T00:01:17.605Z,4.12
2018-08-06T00:01:30.182Z,2.15
2018-08-06T00:01:42.897Z,2.15
2018-08-06T00:01:55.412Z,2.15
2018-08-06T00:02:07.933Z,2.15
2018-08-06T00:02:20.570Z,2.15
2018-08-06T00:02:33.085Z,2.15
2018-08-06T00:02:45.636Z,2.15
2018-08-06T00:02:58.150Z,2.15
2018-08-06T00:03:10.666Z,2.15
2018-08-06T00:03:23.240Z,2.15
2018-08-06T00:03:35.755Z,2.15
2018-08-06T00:03:48.218Z,2.15
2018-08-06T00:04:00.725Z,2.15
2018-08-06T00:04:13.234Z,2.15
2018-08-06T00:04:25.786Z,2.15
2018-08-06T00:04:38.284Z,2.15
2018-08-06T00:04:50.790Z,2.15
2018-08-06T00:05:03.319Z,2.15
2018-08-06T00:05:15.859Z,2.15
2018-08-06T00:05:28.791Z,2.15
2018-08-06T00:05:41.305Z,2.15
2018-08-06T00:05:53.806Z,2.15
2018-08-06T00:06:06.315Z,2.15
2018-08-06T00:06:18.870Z,2.15
2018-08-06T00:06:31.395Z,2.15
2018-08-06T00:06:43.958Z,2.15
2018-08-06T00:06:56.488Z,2.15
2018-08-06T00:07:09.003Z,2.15
2018-08-06T00:07:21.498Z,2.15
2018-08-06T00:07:34.026Z,2.15
2018-08-06T00:07:46.525Z,2.15
2018-08-06T00:07:59.067Z,2.15
2018-08-06T00:08:11.980Z,2.15
2018-08-06T00:08:24.480Z,2.15
2018-08-06T00:08:37.020Z,2.15
2018-08-06T00:08:49.563Z,2.15
2018-08-06T00:09:02.070Z,2.15
2018-08-06T00:09:14.591Z,2.15
2018-08-06T00:09:27.113Z,2.15
2018-08-06T00:09:39.634Z,2.15
2018-08-06T00:09:52.147Z,2.15
2018-08-06T00:10:04.651Z,2.15
2018-08-06T00:10:17.163Z,2.15
2018-08-06T00:10:29.686Z,2.15
2018-08-06T00:10:42.195Z,2.15
2018-08-06T00:10:54.853Z,2.15
2018-08-06T00:11:07.340Z,2.15
2018-08-06T00:11:19.867Z,2.93
2018-08-06T00:11:32.406Z,2.93
2018-08-06T00:11:44.925Z,2.93
2018-08-06T00:11:57.430Z,2.93
2018-08-06T00:12:09.947Z,2.93
2018-08-06T00:12:22.471Z,2.93
2018-08-06T00:12:34.975Z,2.93
2018-08-06T00:12:47.495Z,2.93
2018-08-06T00:13:00.016Z,2.93
2018-08-06T00:13:12.521Z,2.93
2018-08-06T00:13:25.024Z,2.93
2018-08-06T00:13:37.545Z,2.93
2018-08-06T00:13:50.066Z,2.93
2018-08-06T00:14:02.593Z,2.93
2018-08-06T00:14:15.105Z,2.93
2018-08-06T00:14:27.621Z,2.93
2018-08-06T00:14:40.160Z,2.93
2018-08-06T00:14:52.683Z,2.93
2018-08-06T00:15:05.193Z,2.93
2018-08-06T00:15:17.702Z,2.93
2018-08-06T00:15:30.215Z,2.93
2018-08-06T00:15:42.715Z,2.93
2018-08-06T00:15:55.270Z,2.93
2018-08-06T00:16:07.801Z,2.93
2018-08-06T00:16:20.320Z,2.93
2018-08-06T00:16:32.868Z,2.93
2018-08-06T00:16:45.365Z,2.93
2018-08-06T00:16:57.873Z,2.93
2018-08-06T00:17:10.387Z,2.93
2018-08-06T00:17:22.875Z,2.93
2018-08-06T00:17:35.379Z,2.93
2018-08-06T00:17:47.884Z,2.93
2018-08-06T00:18:00.383Z,2.93
2018-08-06T00:18:12.893Z,2.93
2018-08-06T00:18:25.384Z,2.93
2018-08-06T00:18:37.896Z,2.93
2018-08-06T00:18:50.403Z,2.93
2018-08-06T00:19:03.017Z,2.93
2018-08-06T00:19:15.521Z,2.93
2018-08-06T00:19:28.037Z,2.93
2018-08-06T00:19:40.536Z,2.93
2018-08-06T00:19:53.045Z,2.93
2018-08-06T00:20:05.560Z,2.93
2018-08-06T00:20:18.076Z,2.93
2018-08-06T00:20:30.614Z,2.93
2018-08-06T00:20:43.117Z,2.93
2018-08-06T00:20:55.794Z,2.93
2018-08-06T00:21:08.445Z,2.93
2018-08-06T00:21:21.013Z,1.95
2018-08-06T00:21:33.524Z,1.95
2018-08-06T00:21:46.040Z,1.95
2018-08-06T00:21:58.683Z,1.95
2018-08-06T00:22:11.180Z,1.95
2018-08-06T00:22:23.688Z,1.95
2018-08-06T00:22:36.199Z,1.95
2018-08-06T00:22:48.777Z,1.95
2018-08-06T00:23:01.369Z,1.95
2018-08-06T00:23:13.886Z,1.95
2018-08-06T00:23:26.391Z,1.95
2018-08-06T00:23:38.914Z,1.95
2018-08-06T00:23:51.437Z,1.95
2018-08-06T00:24:03.955Z,1.95
2018-08-06T00:24:16.477Z,1.95
2018-08-06T00:24:28.993Z,1.95
2018-08-06T00:24:41.538Z,1.95
2018-08-06T00:24:54.047Z,1.95
2018-08-06T00:25:06.558Z,1.95
2018-08-06T00:25:19.082Z,1.95
2018-08-06T00:25:31.601Z,1.95
2018-08-06T00:25:44.108Z,1.95
2018-08-06T00:25:56.608Z,1.95
2018-08-06T00:26:09.136Z,1.95
2018-08-06T00:26:21.646Z,1.95
2018-08-06T00:26:34.185Z,1.95
2018-08-06T00:26:46.705Z,1.95
2018-08-06T00:26:59.383Z,1.95
2018-08-06T00:27:11.901Z,1.95
2018-08-06T00:27:24.423Z,1.95
2018-08-06T00:27:36.911Z,1.95
2018-08-06T00:27:49.432Z,1.95
2018-08-06T00:28:01.950Z,1.95
2018-08-06T00:28:14.460Z,1.95
2018-08-06T00:28:26.989Z,1.95
2018-08-06T00:28:39.500Z,1.95
2018-08-06T00:28:52.061Z,1.95
2018-08-06T00:29:04.574Z,1.95
2018-08-06T00:29:17.089Z,1.95
2018-08-06T00:29:29.764Z,1.95
2018-08-06T00:29:43.336Z,1.95
2018-08-06T00:29:55.976Z,1.95
2018-08-06T00:30:08.525Z,1.95
2018-08-06T00:30:21.052Z,1.95
2018-08-06T00:30:33.557Z,1.95
2018-08-06T00:30:46.060Z,1.95
2018-08-06T00:30:58.588Z,1.95
2018-08-06T00:31:11.179Z,1.95
2018-08-06T00:31:23.684Z,1.33
2018-08-06T00:31:36.189Z,1.33
2018-08-06T00:31:48.700Z,1.33
2018-08-06T00:32:01.204Z,1.33
2018-08-06T00:32:13.713Z,1.33
2018-08-06T00:32:26.222Z,1.33
2018-08-06T00:32:38.747Z,1.33
2018-08-06T00:32:51.287Z,1.33
2018-08-06T00:33:03.811Z,1.33
2018-08-06T00:33:16.322Z,1.33
2018-08-06T00:33:28.817Z,1.33
2018-08-06T00:33:41.334Z,1.33
2018-08-06T00:33:53.838Z,1.33
2018-08-06T00:34:06.358Z,1.33
2018-08-06T00:34:18.875Z,1.33
2018-08-06T00:34:31.383Z,1.33
2018-08-06T00:34:43.910Z,1.33
2018-08-06T00:34:56.444Z,1.33
2018-08-06T00:35:08.973Z,1.33
2018-08-06T00:35:21.475Z,1.33
2018-08-06T00:35:34.032Z,1.33
2018-08-06T00:35:46.548Z,1.33
2018-08-06T00:35:59.290Z,1.33
2018-08-06T00:36:11.794Z,1.33
2018-08-06T00:36:24.297Z,1.33
2018-08-06T00:36:36.801Z,1.33
2018-08-06T00:36:49.299Z,1.33
2018-08-06T00:37:01.804Z,1.33
2018-08-06T00:37:14.315Z,1.33
2018-08-06T00:37:26.819Z,1.33
2018-08-06T00:37:39.346Z,1.33
2018-08-06T00:37:51.866Z,1.33
2018-08-06T00:38:04.377Z,1.33
2018-08-06T00:38:16.886Z,1.33
2018-08-06T00:38:29.387Z,1.33
2018-08-06T00:38:41.890Z,1.33
2018-08-06T00:38:54.407Z,1.33
2018-08-06T00:39:06.976Z,1.33
2018-08-06T00:39:19.486Z,1.33
2018-08-06T00:39:32.184Z,1.33
2018-08-06T00:39:44.696Z,1.33
2018-08-06T00:39:57.206Z,1.33
2018-08-06T00:40:09.718Z,1.33
2018-08-06T00:40:22.284Z,1.33
2018-08-06T00:40:34.802Z,1.33
2018-08-06T00:40:47.294Z,1.33
2018-08-06T00:40:59.796Z,1.33
2018-08-06T00:41:12.312Z,1.33
2018-08-06T00:41:24.849Z,2.31
2018-08-06T00:41:37.381Z,2.31
2018-08-06T00:41:49.893Z,2.31
2018-08-06T00:42:02.403Z,2.31
2018-08-06T00:42:14.923Z,2.31
2018-08-06T00:42:27.426Z,2.31
2018-08-06T00:42:39.942Z,2.31
2018-08-06T00:42:52.455Z,2.31
2018-08-06T00:43:05.000Z,2.31
2018-08-06T00:43:17.516Z,2.31
2018-08-06T00:43:30.025Z,2.31
2018-08-06T00:43:42.532Z,2.31
2018-08-06T00:43:55.057Z,2.31
2018-08-06T00:44:07.554Z,2.31
2018-08-06T00:44:20.067Z,2.31
2018-08-06T00:44:32.615Z,2.31
2018-08-06T00:44:45.183Z,2.31
2018-08-06T00:44:57.680Z,2.31
2018-08-06T00:45:10.260Z,2.31
2018-08-06T00:45:23.080Z,2.31
2018-08-06T00:45:36.716Z,2.31
2018-08-06T00:45:49.222Z,2.31
2018-08-06T00:46:01.755Z,2.31
2018-08-06T00:46:14.268Z,2.31
2018-08-06T00:46:26.774Z,2.31
2018-08-06T00:46:39.286Z,2.31
2018-08-06T00:46:51.808Z,2.31
2018-08-06T00:47:04.315Z,2.31
2018-08-06T00:47:16.842Z,2.31
2018-08-06T00:47:29.357Z,2.31
2018-08-06T00:47:41.870Z,2.31
2018-08-06T00:47:54.383Z,2.31
2018-08-06T00:48:06.910Z,2.31
2018-08-06T00:48:19.414Z,2.31
2018-08-06T00:48:31.938Z,2.31
2018-08-06T00:48:44.452Z,2.31
2018-08-06T00:48:57.179Z,2.31
2018-08-06T00:49:09.694Z,2.31
2018-08-06T00:49:22.196Z,2.31
2018-08-06T00:49:34.719Z,2.31
2018-08-06T00:49:47.240Z,2.31
2018-08-06T00:49:59.728Z,2.31
2018-08-06T00:50:12.237Z,2.31
2018-08-06T00:50:24.789Z,2.31
2018-08-06T00:50:37.300Z,2.31
2018-08-06T00:50:49.811Z,2.31
2018-08-06T00:51:02.334Z,2.31
2018-08-06T00:51:14.852Z,2.31
2018-08-06T00:51:27.446Z,3.63
2018-08-06T00:51:39.959Z,3.63
2018-08-06T00:51:52.451Z,3.63
2018-08-06T00:52:04.976Z,3.63
2018-08-06T00:52:17.492Z,3.63
2018-08-06T00:52:30.005Z,3.63
2018-08-06T00:52:42.538Z,3.63
2018-08-06T00:52:55.115Z,3.63
2018-08-06T00:53:07.765Z,3.63
2018-08-06T00:53:20.301Z,3.63
2018-08-06T00:53:32.827Z,3.63
2018-08-06T00:53:45.322Z,3.63
2018-08-06T00:53:57.840Z,3.63
2018-08-06T00:54:10.358Z,3.63
2018-08-06T00:54:23.046Z,3.63
2018-08-06T00:54:35.542Z,3.63
2018-08-06T00:54:48.044Z,3.63
2018-08-06T00:55:00.549Z,3.63
2018-08-06T00:55:13.009Z,3.63
2018-08-06T00:55:25.412Z,3.63
2018-08-06T00:55:37.884Z,3.63
2018-08-06T00:55:50.440Z,3.63
2018-08-06T00:56:02.950Z,3.63
2018-08-06T00:56:15.462Z,3.63
2018-08-06T00:56:28.038Z,3.63
2018-08-06T00:56:40.524Z,3.63
2018-08-06T00:56:53.030Z,3.63
2018-08-06T00:57:05.890Z,3.63
2018-08-06T00:57:18.401Z,3.63
2018-08-06T00:57:31.047Z,3.63
2018-08-06T00:57:43.549Z,3.63
2018-08-06T00:57:56.065Z,3.63
2018-08-06T00:58:08.578Z,3.63
2018-08-06T00:58:21.112Z,3.63
2018-08-06T00:58:33.637Z,3.63
2018-08-06T00:58:46.131Z,3.63
2018-08-06T00:58:58.638Z,3.63
2018-08-06T00:59:11.153Z,3.63
2018-08-06T00:59:23.676Z,3.63
2018-08-06T00:59:36.191Z,3.63
2018-08-06T00:59:48.712Z,3.63
2018-08-06T01:00:01.254Z,3.63
2018-08-06T01:00:13.764Z,3.63
2018-08-06T01:00:26.284Z,3.63
2018-08-06T01:00:38.826Z,3.63
2018-08-06T01:00:51.359Z,3.63
2018-08-06T01:01:03.876Z,3.63
2018-08-06T01:01:16.399Z,3.63
2018-08-06T01:01:28.938Z,2.12
2018-08-06T01:01:41.485Z,2.12
2018-08-06T01:01:54.017Z,2.12
2018-08-06T01:02:06.512Z,2.12
2018-08-06T01:02:19.196Z,2.12
2018-08-06T01:02:31.711Z,2.12
2018-08-06T01:02:44.235Z,2.12
2018-08-06T01:02:56.763Z,2.12
2018-08-06T01:03:09.285Z,2.12
2018-08-06T01:03:21.809Z,2.12
2018-08-06T01:03:34.363Z,2.12
2018-08-06T01:03:46.857Z,2.12
2018-08-06T01:03:59.367Z,2.12
2018-08-06T01:04:11.880Z,2.12
2018-08-06T01:04:24.391Z,2.12
2018-08-06T01:04:36.920Z,2.12
2018-08-06T01:04:49.430Z,2.12
2018-08-06T01:05:01.949Z,2.12
2018-08-06T01:05:14.469Z,2.12
2018-08-06T01:05:27.117Z,2.12
2018-08-06T01:05:39.624Z,2.12
2018-08-06T01:05:52.111Z,2.12
2018-08-06T01:06:04.641Z,2.12
2018-08-06T01:06:17.218Z,2.12
2018-08-06T01:06:29.727Z,2.12
2018-08-06T01:06:42.249Z,2.12
2018-08-06T01:06:54.777Z,2.12
2018-08-06T01:07:07.294Z,2.12
2018-08-06T01:07:19.779Z,2.12
2018-08-06T01:07:32.300Z,2.12
2018-08-06T01:07:44.845Z,2.12
2018-08-06T01:07:57.363Z,2.12
2018-08-06T01:08:09.869Z,2.12
2018-08-06T01:08:22.397Z,2.12
2018-08-06T01:08:34.922Z,2.12
2018-08-06T01:08:47.422Z,2.12
2018-08-06T01:08:59.930Z,2.12
2018-08-06T01:09:12.439Z,2.12
2018-08-06T01:09:24.957Z,2.12
2018-08-06T01:09:37.470Z,2.12
2018-08-06T01:09:49.964Z,2.12
2018-08-06T01:10:02.472Z,2.12
2018-08-06T01:10:15.010Z,2.12
2018-08-06T01:10:27.521Z,2.12
2018-08-06T01:10:40.057Z,2.12
2018-08-06T01:10:52.759Z,2.12
2018-08-06T01:11:05.280Z,2.12
2018-08-06T01:11:17.784Z,2.12
2018-08-06T01:11:30.285Z,3.1
2018-08-06T01:11:42.787Z,3.1
2018-08-06T01:11:55.337Z,3.1
2018-08-06T01:12:07.878Z,3.1
2018-08-06T01:12:20.377Z,3.1
2018-08-06T01:12:32.880Z,3.1
2018-08-06T01:12:45.402Z,3.1
2018-08-06T01:12:57.919Z,3.1
2018-08-06T01:13:10.434Z,3.1
2018-08-06T01:13:22.952Z,3.1
2018-08-06T01:13:35.445Z,3.1
2018-08-06T01:13:48.026Z,3.1
2018-08-06T01:14:00.532Z,3.1
2018-08-06T01:14:13.049Z,3.1
2018-08-06T01:14:25.563Z,3.1
2018-08-06T01:14:38.071Z,3.1
2018-08-06T01:14:50.593Z,3.1
2018-08-06T01:15:03.094Z,3.1
2018-08-06T01:15:15.599Z,3.1
2018-08-06T01:15:28.137Z,3.1
2018-08-06T01:15:40.655Z,3.1
2018-08-06T01:15:53.229Z,3.1
2018-08-06T01:16:05.733Z,3.1
2018-08-06T01:16:18.250Z,3.1
2018-08-06T01:16:30.752Z,3.1
2018-08-06T01:16:43.277Z,3.1
2018-08-06T01:16:55.792Z,3.1
2018-08-06T01:17:08.303Z,3.1
2018-08-06T01:17:20.814Z,3.1
2018-08-06T01:17:33.310Z,3.1
2018-08-06T01:17:45.820Z,3.1
2018-08-06T01:17:58.335Z,3.1
2018-08-06T01:18:10.864Z,3.1
2018-08-06T01:18:23.405Z,3.1
2018-08-06T01:18:35.907Z,3.1
2018-08-06T01:18:48.408Z,3.1
2018-08-06T01:19:00.933Z,3.1
2018-08-06T01:19:13.465Z,3.1
2018-08-06T01:19:25.987Z,3.1
2018-08-06T01:19:38.505Z,3.1
2018-08-06T01:19:51.067Z,3.1
2018-08-06T01:20:03.592Z,3.1
2018-08-06T01:20:16.110Z,3.1
2018-08-06T01:20:28.645Z,3.1
2018-08-06T01:20:41.150Z,3.1
2018-08-06T01:20:53.982Z,3.1
2018-08-06T01:21:06.667Z,3.1
2018-08-06T01:21:19.154Z,3.1
2018-08-06T01:21:31.646Z,3.35
2018-08-06T01:21:44.146Z,3.35
2018-08-06T01:21:56.781Z,3.35
2018-08-06T01:22:09.299Z,3.35
2018-08-06T01:22:21.806Z,3.35
2018-08-06T01:22:34.327Z,3.35
2018-08-06T01:22:46.835Z,3.35
2018-08-06T01:22:59.361Z,3.35
2018-08-06T01:23:11.856Z,3.35
2018-08-06T01:23:24.362Z,3.35
2018-08-06T01:23:36.868Z,3.35
2018-08-06T01:23:49.373Z,3.35
2018-08-06T01:24:01.915Z,3.35
2018-08-06T01:24:14.659Z,3.35
2018-08-06T01:24:27.167Z,3.35
2018-08-06T01:24:39.697Z,3.35
2018-08-06T01:24:52.217Z,3.35
2018-08-06T01:25:04.769Z,3.35
2018-08-06T01:25:17.304Z,3.35
2018-08-06T01:25:29.822Z,3.35
2018-08-06T01:25:42.330Z,3.35
2018-08-06T01:25:54.876Z,3.35
2018-08-06T01:26:07.448Z,3.35
2018-08-06T01:26:19.968Z,3.35
2018-08-06T01:26:32.471Z,3.35
2018-08-06T01:26:44.989Z,3.35
2018-08-06T01:26:57.556Z,3.35
2018-08-06T01:27:10.070Z,3.35
2018-08-06T01:27:22.632Z,3.35
2018-08-06T01:27:35.279Z,3.35
2018-08-06T01:27:47.811Z,3.35
2018-08-06T01:28:00.312Z,3.35
2018-08-06T01:28:12.833Z,3.35
2018-08-06T01:28:25.340Z,3.35
2018-08-06T01:28:37.868Z,3.35
2018-08-06T01:28:50.380Z,3.35
2018-08-06T01:29:02.913Z,3.35
2018-08-06T01:29:15.404Z,3.35
2018-08-06T01:29:27.924Z,3.35
2018-08-06T01:29:40.436Z,3.35
2018-08-06T01:29:53.086Z,3.35
2018-08-06T01:30:05.630Z,3.35
2018-08-06T01:30:18.422Z,3.35
2018-08-06T01:30:30.939Z,3.35
2018-08-06T01:30:43.452Z,3.35
2018-08-06T01:30:55.961Z,3.35
2018-08-06T01:31:08.523Z,3.35
2018-08-06T01:31:21.021Z,3.35
2018-08-06T01:31:33.510Z,1.65
2018-08-06T01:31:46.021Z,1.65
2018-08-06T01:31:58.532Z,1.65
2018-08-06T01:32:11.057Z,1.65
2018-08-06T01:32:23.561Z,1.65
2018-08-06T01:32:36.055Z,1.65
2018-08-06T01:32:48.608Z,1.65
2018-08-06T01:33:01.152Z,1.65
2018-08-06T01:33:13.669Z,1.65
2018-08-06T01:33:26.172Z,1.65
2018-08-06T01:33:38.696Z,1.65
2018-08-06T01:33:51.208Z,1.65
2018-08-06T01:34:03.712Z,1.65
2018-08-06T01:34:16.225Z,1.65
2018-08-06T01:34:28.740Z,1.65
2018-08-06T01:34:41.244Z,1.65
2018-08-06T01:34:53.768Z,1.65
2018-08-06T01:35:06.277Z,1.65
2018-08-06T01:35:18.841Z,1.65
2018-08-06T01:35:31.353Z,1.65
2018-08-06T01:35:43.845Z,1.65
2018-08-06T01:35:56.375Z,1.65
2018-08-06T01:36:08.886Z,1.65
2018-08-06T01:36:21.405Z,1.65
2018-08-06T01:36:33.980Z,1.65
2018-08-06T01:36:46.496Z,1.65
2018-08-06T01:36:59.023Z,1.65
2018-08-06T01:37:11.543Z,1.65
2018-08-06T01:37:24.044Z,1.65
2018-08-06T01:37:36.526Z,1.65
2018-08-06T01:37:49.053Z,1.65
2018-08-06T01:38:01.566Z,1.65
2018-08-06T01:38:14.068Z,1.65
2018-08-06T01:38:26.591Z,1.65
2018-08-06T01:38:39.108Z,1.65
2018-08-06T01:38:51.615Z,1.65
2018-08-06T01:39:04.138Z,1.65
2018-08-06T01:39:16.707Z,1.65
2018-08-06T01:39:29.359Z,1.65
2018-08-06T01:39:41.861Z,1.65
2018-08-06T01:39:54.369Z,1.65
2018-08-06T01:40:06.945Z,1.65
2018-08-06T01:40:19.467Z,1.65
2018-08-06T01:40:31.978Z,1.65
2018-08-06T01:40:44.536Z,1.65
2018-08-06T01:40:57.048Z,1.65
2018-08-06T01:41:09.555Z,1.65
2018-08-06T01:41:22.055Z,1.65
2018-08-06T01:41:34.593Z,2.38
2018-08-06T01:41:47.102Z,2.38
2018-08-06T01:41:59.627Z,2.38
2018-08-06T01:42:12.154Z,2.38
2018-08-06T01:42:24.668Z,2.38
2018-08-06T01:42:37.191Z,2.38
2018-08-06T01:42:49.689Z,2.38
2018-08-06T01:43:02.223Z,2.38
2018-08-06T01:43:14.768Z,2.38
2018-08-06T01:43:27.268Z,2.38
2018-08-06T01:43:39.783Z,2.38
2018-08-06T01:43:52.301Z,2.38
2018-08-06T01:44:04.859Z,2.38
2018-08-06T01:44:17.399Z,2.38
2018-08-06T01:44:29.934Z,2.38
2018-08-06T01:44:42.464Z,2.38
2018-08-06T01:44:54.964Z,2.38
2018-08-06T01:45:07.478Z,2.38
2018-08-06T01:45:19.993Z,2.38
2018-08-06T01:45:32.529Z,2.38
2018-08-06T01:45:45.564Z,2.38
2018-08-06T01:45:58.870Z,2.38
2018-08-06T01:46:11.464Z,2.38
2018-08-06T01:46:24.097Z,2.38
2018-08-06T01:46:36.614Z,2.38
2018-08-06T01:46:49.110Z,2.38
2018-08-06T01:47:01.629Z,2.38
2018-08-06T01:47:14.153Z,2.38
2018-08-06T01:47:26.654Z,2.38
2018-08-06T01:47:39.180Z,2.38
2018-08-06T01:47:51.704Z,2.38
2018-08-06T01:48:04.206Z,2.38
2018-08-06T01:48:16.733Z,2.38
2018-08-06T01:48:29.240Z,2.38
2018-08-06T01:48:41.755Z,2.38
2018-08-06T01:48:54.369Z,2.38
2018-08-06T01:49:06.903Z,2.38
2018-08-06T01:49:19.421Z,2.38
2018-08-06T01:49:31.934Z,2.38
2018-08-06T01:49:44.452Z,2.38
2018-08-06T01:49:56.943Z,2.38
2018-08-06T01:50:09.440Z,2.38
2018-08-06T01:50:22.013Z,2.38
2018-08-06T01:50:34.495Z,2.38
2018-08-06T01:50:47.041Z,2.38
2018-08-06T01:50:59.563Z,2.38
2018-08-06T01:51:12.074Z,2.38
2018-08-06T01:51:24.598Z,2.38
2018-08-06T01:51:37.233Z,3.08
2018-08-06T01:51:49.762Z,3.08
2018-08-06T01:52:02.264Z,3.08
2018-08-06T01:52:14.841Z,3.08
2018-08-06T01:52:27.386Z,3.08
2018-08-06T01:52:39.916Z,3.08
2018-08-06T01:52:52.454Z,3.08
2018-08-06T01:53:04.972Z,3.08
2018-08-06T01:53:17.486Z,3.08
2018-08-06T01:53:30.010Z,3.08
2018-08-06T01:53:42.535Z,3.08
2018-08-06T01:53:55.037Z,3.08
2018-08-06T01:54:07.554Z,3.08
2018-08-06T01:54:20.052Z,3.08
2018-08-06T01:54:32.566Z,3.08
2018-08-06T01:54:45.095Z,3.08
2018-08-06T01:54:57.594Z,3.08
2018-08-06T01:55:10.113Z,3.08
2018-08-06T01:55:22.669Z,3.08
2018-08-06T01:55:35.174Z,3.08
2018-08-06T01:55:47.739Z,3.08
2018-08-06T01:56:00.254Z,3.08
2018-08-06T01:56:12.772Z,3.08
2018-08-06T01:56:25.311Z,3.08
2018-08-06T01:56:37.941Z,3.08
2018-08-06T01:56:50.459Z,3.08
2018-08-06T01:57:02.956Z,3.08
2018-08-06T01:57:15.471Z,3.08
2018-08-06T01:57:27.984Z,3.08
2018-08-06T01:57:40.517Z,3.08
2018-08-06T01:57:53.027Z,3.08
2018-08-06T01:58:05.533Z,3.08
2018-08-06T01:58:18.070Z,3.08
2018-08-06T01:58:30.559Z,3.08
2018-08-06T01:58:43.055Z,3.08
2018-08-06T01:58:55.567Z,3.08
2018-08-06T01:59:08.065Z,3.08
2018-08-06T01:59:25.691Z,3.08
2018-08-06T01:59:38.255Z,3.08
2018-08-06T01:59:50.783Z,3.08
2018-08-06T02:00:03.318Z,3.08
2018-08-06T02:00:15.857Z,3.08
2018-08-06T02:00:28.377Z,3.08
2018-08-06T02:00:40.940Z,3.08
2018-08-06T02:00:53.463Z,3.08
2018-08-06T02:01:06.006Z,3.08
2018-08-06T02:01:18.523Z,3.08
2018-08-06T02:01:31.081Z,3.08
2018-08-06T02:01:43.638Z,1.67
2018-08-06T02:01:56.166Z,1.67
2018-08-06T02:02:08.686Z,1.67
2018-08-06T02:02:21.319Z,1.67
2018-08-06T02:02:33.843Z,1.67
2018-08-06T02:02:46.358Z,1.67
2018-08-06T02:02:58.862Z,1.67
2018-08-06T02:03:11.359Z,1.67
2018-08-06T02:03:23.865Z,1.67
2018-08-06T02:03:36.357Z,1.67
2018-08-06T02:03:48.862Z,1.67
2018-08-06T02:04:01.372Z,1.67
2018-08-06T02:04:13.885Z,1.67
2018-08-06T02:04:26.405Z,1.67
2018-08-06T02:04:38.903Z,1.67
2018-08-06T02:04:51.442Z,1.67
2018-08-06T02:05:03.950Z,1.67
2018-08-06T02:05:16.540Z,1.67
2018-08-06T02:05:29.140Z,1.67
2018-08-06T02:05:41.665Z,1.67
2018-08-06T02:05:54.229Z,1.67
2018-08-06T02:06:06.757Z,1.67
2018-08-06T02:06:19.267Z,1.67
2018-08-06T02:06:31.771Z,1.67
2018-08-06T02:06:44.279Z,1.67
2018-08-06T02:06:56.810Z,1.67
2018-08-06T02:07:09.323Z,1.67
2018-08-06T02:07:21.836Z,1.67
2018-08-06T02:07:34.376Z,1.67
2018-08-06T02:07:46.914Z,1.67
2018-08-06T02:07:59.431Z,1.67
2018-08-06T02:08:11.946Z,1.67
2018-08-06T02:08:24.467Z,1.67
2018-08-06T02:08:36.990Z,1.67
2018-08-06T02:08:49.504Z,1.67
2018-08-06T02:09:02.005Z,1.67
2018-08-06T02:09:14.538Z,1.67
2018-08-06T02:09:27.108Z,1.67
2018-08-06T02:09:39.594Z,1.67
2018-08-06T02:09:52.100Z,1.67
2018-08-06T02:10:04.619Z,1.67
2018-08-06T02:10:17.141Z,1.67
2018-08-06T02:10:29.729Z,1.67
2018-08-06T02:10:42.238Z,1.67
2018-08-06T02:10:54.917Z,1.67
2018-08-06T02:11:07.436Z,1.67
2018-08-06T02:11:19.961Z,1.67
2018-08-06T02:11:32.477Z,1.67
2018-08-06T02:11:44.998Z,2.29
2018-08-06T02:11:57.505Z,2.29
2018-08-06T02:12:10.030Z,2.29
2018-08-06T02:12:22.549Z,2.29
2018-08-06T02:12:35.073Z,2.29
2018-08-06T02:12:47.603Z,2.29
2018-08-06T02:13:00.128Z,2.29
2018-08-06T02:13:12.648Z,2.29
2018-08-06T02:13:25.163Z,2.29
2018-08-06T02:13:37.659Z,2.29
2018-08-06T02:13:50.192Z,2.29
2018-08-06T02:14:02.731Z,2.29
2018-08-06T02:14:15.234Z,2.29
2018-08-06T02:14:27.734Z,2.29
2018-08-06T02:14:40.261Z,2.29
2018-08-06T02:14:52.801Z,2.29
2018-08-06T02:15:05.338Z,2.29
2018-08-06T02:15:17.887Z,2.29
2018-08-06T02:15:30.392Z,2.29
2018-08-06T02:15:42.895Z,2.29
2018-08-06T02:15:55.422Z,2.29
2018-08-06T02:16:07.944Z,2.29
2018-08-06T02:16:20.457Z,2.29
2018-08-06T02:16:33.017Z,2.29
2018-08-06T02:16:45.559Z,2.29
2018-08-06T02:16:58.087Z,2.29
2018-08-06T02:17:10.603Z,2.29
2018-08-06T02:17:23.116Z,2.29
2018-08-06T02:17:35.617Z,2.29
2018-08-06T02:17:48.152Z,2.29
2018-08-06T02:18:00.683Z,2.29
2018-08-06T02:18:13.203Z,2.29
2018-08-06T02:18:25.719Z,2.29
2018-08-06T02:18:38.219Z,2.29
2018-08-06T02:18:50.745Z,2.29
2018-08-06T02:19:03.248Z,2.29
2018-08-06T02:19:15.756Z,2.29
2018-08-06T02:19:28.281Z,2.29
2018-08-06T02:19:40.801Z,2.29
2018-08-06T02:19:53.328Z,2.29
2018-08-06T02:20:05.830Z,2.29
2018-08-06T02:20:18.344Z,2.29
2018-08-06T02:20:30.906Z,2.29
2018-08-06T02:20:43.424Z,2.29
2018-08-06T02:20:56.109Z,2.29
2018-08-06T02:21:08.768Z,2.29
2018-08-06T02:21:21.302Z,2.29
2018-08-06T02:21:33.799Z,3.93
2018-08-06T02:21:46.356Z,3.93
2018-08-06T02:21:58.994Z,3.93
2018-08-06T02:22:11.507Z,3.93
2018-08-06T02:22:24.057Z,3.93
2018-08-06T02:22:36.556Z,3.93
2018-08-06T02:22:49.075Z,3.93
2018-08-06T02:23:01.594Z,3.93
2018-08-06T02:23:14.114Z,3.93
2018-08-06T02:23:26.613Z,3.93
2018-08-06T02:23:39.110Z,3.93
2018-08-06T02:23:51.614Z,3.93
2018-08-06T02:24:04.121Z,3.93
2018-08-06T02:24:16.651Z,3.93
2018-08-06T02:24:29.208Z,3.93
2018-08-06T02:24:41.761Z,3.93
2018-08-06T02:24:54.288Z,3.93
2018-08-06T02:25:06.828Z,3.93
2018-08-06T02:25:19.369Z,3.93
2018-08-06T02:25:31.887Z,3.93
2018-08-06T02:25:44.400Z,3.93
2018-08-06T02:25:56.954Z,3.93
2018-08-06T02:26:09.453Z,3.93
2018-08-06T02:26:21.965Z,3.93
2018-08-06T02:26:34.491Z,3.93
2018-08-06T02:26:47.039Z,3.93
2018-08-06T02:26:59.537Z,3.93
2018-08-06T02:27:12.066Z,3.93
2018-08-06T02:27:24.584Z,3.93
2018-08-06T02:27:37.092Z,3.93
2018-08-06T02:27:49.598Z,3.93
2018-08-06T02:28:02.097Z,3.93
2018-08-06T02:28:14.843Z,3.93
2018-08-06T02:28:27.343Z,3.93
2018-08-06T02:28:39.840Z,3.93
2018-08-06T02:28:52.375Z,3.93
2018-08-06T02:29:04.881Z,3.93
2018-08-06T02:29:17.383Z,3.93
2018-08-06T02:29:29.915Z,3.93
2018-08-06T02:29:42.423Z,3.93
2018-08-06T02:29:54.940Z,3.93
2018-08-06T02:30:07.462Z,3.93
2018-08-06T02:30:20.264Z,3.93
2018-08-06T02:30:32.830Z,3.93
2018-08-06T02:30:45.375Z,3.93
2018-08-06T02:30:57.998Z,3.93
2018-08-06T02:31:10.508Z,3.93
2018-08-06T02:31:23.040Z,3.93
2018-08-06T02:31:35.624Z,3.02
2018-08-06T02:31:48.138Z,3.02
2018-08-06T02:32:00.676Z,3.02
2018-08-06T02:32:13.233Z,3.02
2018-08-06T02:32:25.753Z,3.02
2018-08-06T02:32:38.289Z,3.02
2018-08-06T02:32:50.817Z,3.02
2018-08-06T02:33:03.337Z,3.02
2018-08-06T02:33:15.879Z,3.02
2018-08-06T02:33:28.403Z,3.02
2018-08-06T02:33:40.945Z,3.02
2018-08-06T02:33:53.485Z,3.02
2018-08-06T02:34:06.024Z,3.02
2018-08-06T02:34:18.565Z,3.02
2018-08-06T02:34:31.106Z,3.02
2018-08-06T02:34:43.659Z,3.02
2018-08-06T02:34:56.199Z,3.02
2018-08-06T02:35:08.726Z,3.02
2018-08-06T02:35:21.322Z,3.02
2018-08-06T02:35:33.989Z,3.02
2018-08-06T02:35:46.507Z,3.02
2018-08-06T02:35:59.228Z,3.02
2018-08-06T02:36:11.821Z,3.02
2018-08-06T02:36:24.372Z,3.02
2018-08-06T02:36:36.916Z,3.02
2018-08-06T02:36:49.460Z,3.02
2018-08-06T02:37:02.001Z,3.02
2018-08-06T02:37:14.549Z,3.02
2018-08-06T02:37:27.102Z,3.02
2018-08-06T02:37:39.617Z,3.02
2018-08-06T02:37:52.155Z,3.02
2018-08-06T02:38:04.693Z,3.02
2018-08-06T02:38:17.260Z,3.02
2018-08-06T02:38:29.780Z,3.02
2018-08-06T02:38:42.650Z,3.02
2018-08-06T02:38:55.168Z,3.02
2018-08-06T02:39:07.777Z,3.02
2018-08-06T02:39:20.326Z,3.02
2018-08-06T02:39:33.069Z,3.02
2018-08-06T02:39:45.621Z,3.02
2018-08-06T02:39:58.156Z,3.02
2018-08-06T02:40:10.687Z,3.02
2018-08-06T02:40:23.228Z,3.02
2018-08-06T02:40:35.745Z,3.02
2018-08-06T02:40:48.263Z,3.02
2018-08-06T02:41:00.796Z,3.02
2018-08-06T02:41:13.466Z,3.02
2018-08-06T02:41:25.982Z,3.02
2018-08-06T02:41:38.509Z,2.6
2018-08-06T02:41:51.057Z,2.6
2018-08-06T02:42:03.614Z,2.6
2018-08-06T02:42:16.166Z,2.6
2018-08-06T02:42:28.684Z,2.6
2018-08-06T02:42:41.219Z,2.6
2018-08-06T02:42:53.733Z,2.6
2018-08-06T02:43:06.280Z,2.6
2018-08-06T02:43:18.839Z,2.6
2018-08-06T02:43:31.371Z,2.6
2018-08-06T02:43:43.865Z,2.6
2018-08-06T02:43:56.378Z,2.6
2018-08-06T02:44:08.898Z,2.6
2018-08-06T02:44:21.412Z,2.6
2018-08-06T02:44:33.953Z,2.6
2018-08-06T02:44:46.474Z,2.6
2018-08-06T02:44:59.012Z,2.6
2018-08-06T02:45:11.525Z,2.6
2018-08-06T02:45:24.051Z,2.6
2018-08-06T02:45:36.562Z,2.6
2018-08-06T02:45:49.143Z,2.6
2018-08-06T02:46:01.659Z,2.6
2018-08-06T02:46:14.250Z,2.6
2018-08-06T02:46:26.758Z,2.6
2018-08-06T02:46:39.266Z,2.6
2018-08-06T02:46:51.776Z,2.6
2018-08-06T02:47:04.335Z,2.6
2018-08-06T02:47:16.855Z,2.6
2018-08-06T02:47:29.354Z,2.6